createdAt,value
2023-04-10T00:01:55.785Z,100006.73
2023-04-10T00:04:23.749Z,100000.33
2023-04-10T00:06:51.664Z,99995.69
2023-04-10T00:09:19.487Z,99998.95
2023-04-10T00:11:47.443Z,99999.71
2023-04-10T00:14:15.379Z,100001.11
2023-04-10T00:16:43.239Z,99998.89
2023-04-10T00:19:11.341Z,99995.20
2023-04-10T00:21:39.255Z,100000.42
2023-04-10T00:24:07.511Z,100001.49
2023-04-10T00:26:36.262Z,100001.17
2023-04-10T00:29:04.348Z,100002.79
2023-04-10T00:31:32.333Z,100002.80
2023-04-10T00:34:00.397Z,100004.21
2023-04-10T00:36:28.475Z,100004.05
2023-04-10T00:38:56.395Z,100006.21
2023-04-10T00:41:24.240Z,100005.69
2023-04-10T00:43:56.968Z,100005.16
2023-04-10T00:46:25.212Z,100004.95
2023-04-10T00:48:54.712Z,100001.96
2023-04-10T00:51:23.110Z,100000.20
2023-04-10T00:53:51.838Z,99997.90
2023-04-10T00:56:20.912Z,99996.80
2023-04-10T00:58:49.331Z,99997.48
2023-04-10T01:01:17.868Z,99995.35
2023-04-10T01:03:46.225Z,99991.82
2023-04-10T01:06:28.342Z,99992.48
2023-04-10T01:09:09.756Z,99988.05
2023-04-10T01:11:43.480Z,99988.91
2023-04-10T01:14:33.428Z,99986.65
2023-04-10T01:17:08.037Z,99987.54
2023-04-10T01:20:14.554Z,99992.62
2023-04-10T01:22:50.790Z,99991.94
2023-04-10T01:25:31.475Z,99989.32
2023-04-10T01:28:18.944Z,99990.35
2023-04-10T01:30:58.431Z,99991.29
2023-04-10T01:33:39.020Z,99991.01
2023-04-10T01:36:08.312Z,99989.89
2023-04-10T01:38:38.160Z,99988.98
2023-04-10T01:41:07.371Z,99985.42
2023-04-10T01:43:36.970Z,99985.02
2023-04-10T01:46:05.421Z,99985.67
2023-04-10T01:48:33.284Z,99982.16
2023-04-10T01:51:04.991Z,99983.56
2023-04-10T01:53:33.742Z,99983.71
2023-04-10T01:56:02.981Z,99982.66
2023-04-10T01:58:35.756Z,99983.52
2023-04-10T02:01:04.626Z,99985.14
2023-04-10T02:03:33.055Z,99986.44
2023-04-10T02:06:07.211Z,99987.06
2023-04-10T02:08:38.032Z,99985.88
2023-04-10T02:11:18.726Z,99986.98
2023-04-10T02:13:49.325Z,99985.86
2023-04-10T02:16:19.928Z,99979.34
2023-04-10T02:18:49.888Z,99974.54
2023-04-10T02:21:18.455Z,99970.48
2023-04-10T02:23:46.556Z,99969.23
2023-04-10T02:26:16.471Z,99963.95
2023-04-10T02:28:44.299Z,99965.02
2023-04-10T02:31:12.169Z,99968.52
2023-04-10T02:33:40.045Z,99969.45
2023-04-10T02:36:08.483Z,99973.25
2023-04-10T02:38:36.340Z,99978.59
2023-04-10T02:41:04.948Z,99983.73
2023-04-10T02:43:32.791Z,99991.45
2023-04-10T02:46:00.718Z,99989.92
2023-04-10T02:48:29.697Z,99985.15
2023-04-10T02:51:00.369Z,99987.73
2023-04-10T02:53:29.510Z,99989.44
2023-04-10T02:55:59.843Z,99989.01
2023-04-10T02:58:30.459Z,99988.43
2023-04-10T03:00:58.678Z,99992.29
2023-04-10T03:03:40.514Z,99993.33
2023-04-10T03:06:09.811Z,99992.31
2023-04-10T03:08:38.221Z,99991.17
2023-04-10T03:11:08.008Z,99992.83
2023-04-10T03:13:36.034Z,99989.60
2023-04-10T03:16:04.223Z,99992.84
2023-04-10T03:18:34.281Z,99993.77
2023-04-10T03:21:02.705Z,99995.62
2023-04-10T03:23:30.628Z,99993.77
2023-04-10T03:25:58.559Z,99996.23
2023-04-10T03:28:29.692Z,99990.14
2023-04-10T03:30:57.674Z,99993.15
2023-04-10T03:33:25.876Z,99992.52
2023-04-10T03:35:53.964Z,99991.89
2023-04-10T03:38:21.916Z,99992.95
2023-04-10T03:40:50.349Z,99996.95
2023-04-10T03:43:20.710Z,99990.85
2023-04-10T03:45:48.723Z,99989.91
2023-04-10T03:48:17.993Z,99986.30
2023-04-10T03:50:47.537Z,99990.42
2023-04-10T03:53:17.213Z,99995.25
2023-04-10T03:55:46.131Z,99997.13
2023-04-10T03:58:14.311Z,99998.08
2023-04-10T04:00:42.385Z,99998.63
2023-04-10T04:03:22.957Z,99997.19
2023-04-10T04:05:54.080Z,99995.50
2023-04-10T04:08:32.482Z,100000.09
2023-04-10T04:11:09.584Z,100009.73
2023-04-10T04:13:47.383Z,100015.24
2023-04-10T04:16:30.216Z,100014.77
2023-04-10T04:19:13.898Z,100014.14
2023-04-10T04:22:00.561Z,100016.66
2023-04-10T04:24:57.576Z,100022.46
2023-04-10T04:27:48.268Z,100020.09
2023-04-10T04:30:32.743Z,100021.73
2023-04-10T04:33:15.714Z,100024.41
2023-04-10T04:36:09.907Z,100024.30
2023-04-10T04:38:37.768Z,100026.30
2023-04-10T04:41:24.687Z,100026.54
2023-04-10T04:44:07.868Z,100029.58
2023-04-10T04:46:50.951Z,100034.37
2023-04-10T04:49:24.941Z,100036.17
2023-04-10T04:52:11.645Z,100038.48
2023-04-10T04:54:43.221Z,100040.98
2023-04-10T04:57:37.448Z,100041.20
2023-04-10T05:00:28.726Z,100046.52
2023-04-10T05:03:07.052Z,100053.47
2023-04-10T05:05:40.350Z,100056.35
2023-04-10T05:08:29.074Z,100056.92
2023-04-10T05:11:23.464Z,100054.70
2023-04-10T05:14:09.915Z,100057.01
2023-04-10T05:16:57.968Z,100057.06
2023-04-10T05:19:47.171Z,100060.12
2023-04-10T05:22:53.246Z,100061.05
2023-04-10T05:25:47.602Z,100058.11
2023-04-10T05:28:22.797Z,100061.88
2023-04-10T05:31:16.507Z,100062.38
2023-04-10T05:34:13.838Z,100060.05
2023-04-10T05:37:01.550Z,100060.13
2023-04-10T05:39:52.171Z,100054.76
2023-04-10T05:42:55.287Z,100057.96
2023-04-10T05:45:28.873Z,100059.55
2023-04-10T05:48:15.369Z,100060.41
2023-04-10T05:50:59.080Z,100058.69
2023-04-10T05:53:42.834Z,100053.56
2023-04-10T05:56:46.204Z,100049.81
2023-04-10T05:59:52.463Z,100050.40
2023-04-10T06:02:39.089Z,100048.07
2023-04-10T06:05:08.596Z,100046.17
2023-04-10T06:07:36.731Z,100042.92
2023-04-10T06:10:05.396Z,100044.70
2023-04-10T06:12:36.167Z,100039.15
2023-04-10T06:15:04.825Z,100039.10
2023-04-10T06:17:35.453Z,100040.19
2023-04-10T06:20:04.633Z,100040.14
2023-04-10T06:22:32.723Z,100042.70
2023-04-10T06:25:00.640Z,100043.57
2023-04-10T06:27:29.012Z,100046.37
2023-04-10T06:29:57.147Z,100049.23
2023-04-10T06:32:25.122Z,100048.03
2023-04-10T06:34:53.045Z,100043.09
2023-04-10T06:37:29.272Z,100039.89
2023-04-10T06:40:02.711Z,100036.19
2023-04-10T06:42:30.725Z,100036.16
2023-04-10T06:45:03.192Z,100039.91
2023-04-10T06:47:32.246Z,100047.80
2023-04-10T06:50:00.235Z,100057.80
2023-04-10T06:52:28.139Z,100061.05
2023-04-10T06:54:55.978Z,100051.82
2023-04-10T06:57:23.852Z,100055.16
2023-04-10T06:59:51.697Z,100057.47
2023-04-10T07:02:19.657Z,100055.30
2023-04-10T07:04:47.624Z,100050.40
2023-04-10T07:07:16.039Z,100053.53
2023-04-10T07:09:43.969Z,100053.86
2023-04-10T07:12:11.895Z,100053.47
2023-04-10T07:14:39.771Z,100055.42
2023-04-10T07:17:07.936Z,100058.67
2023-04-10T07:19:35.922Z,100057.66
2023-04-10T07:22:04.149Z,100058.50
2023-04-10T07:24:32.689Z,100063.24
2023-04-10T07:27:01.682Z,100066.34
2023-04-10T07:29:30.830Z,100062.17
2023-04-10T07:31:58.804Z,100060.59
2023-04-10T07:34:26.781Z,100060.45
2023-04-10T07:36:54.622Z,100060.90
2023-04-10T07:39:22.511Z,100059.33
2023-04-10T07:41:50.564Z,100055.03
2023-04-10T07:44:18.593Z,100054.39
2023-04-10T07:46:46.457Z,100053.23
2023-04-10T07:49:14.314Z,100050.42
2023-04-10T07:51:42.208Z,100048.55
2023-04-10T07:54:10.050Z,100044.09
2023-04-10T07:56:37.958Z,100042.20
2023-04-10T07:59:06.014Z,100046.96
2023-04-10T08:01:34.153Z,100048.31
2023-04-10T08:04:05.616Z,100047.23
2023-04-10T08:06:34.051Z,100047.05
2023-04-10T08:09:02.153Z,100041.50
2023-04-10T08:11:32.056Z,100040.77
2023-04-10T08:14:01.891Z,100042.03
2023-04-10T08:16:31.877Z,100043.13
2023-04-10T08:19:01.405Z,100042.31
2023-04-10T08:21:31.940Z,100037.35
2023-04-10T08:24:02.077Z,100034.07
2023-04-10T08:26:30.041Z,100032.27
2023-04-10T08:28:59.851Z,100025.79
2023-04-10T08:31:29.069Z,100024.73
2023-04-10T08:33:57.586Z,100022.02
2023-04-10T08:36:27.176Z,100022.23
2023-04-10T08:38:55.421Z,100027.61
2023-04-10T08:41:23.281Z,100026.14
2023-04-10T08:43:51.304Z,100025.81
2023-04-10T08:46:20.172Z,100028.42
2023-04-10T08:48:53.230Z,100030.83
2023-04-10T08:51:26.000Z,100031.38
2023-04-10T08:53:59.181Z,100032.45
2023-04-10T08:56:27.544Z,100035.34
2023-04-10T08:58:55.582Z,100030.02
2023-04-10T09:01:24.194Z,100028.80
2023-04-10T09:03:52.529Z,100025.16
2023-04-10T09:06:20.403Z,100019.77
2023-04-10T09:08:48.244Z,100022.82
2023-04-10T09:11:16.171Z,100021.70
2023-04-10T09:13:45.083Z,100024.18
2023-04-10T09:16:14.302Z,100025.45
2023-04-10T09:18:50.695Z,100025.09
2023-04-10T09:21:20.885Z,100022.39
2023-04-10T09:23:49.667Z,100018.89
2023-04-10T09:26:24.619Z,100021.16
2023-04-10T09:28:56.857Z,100017.35
2023-04-10T09:31:34.065Z,100018.44
2023-04-10T09:34:23.781Z,100011.55
2023-04-10T09:36:59.990Z,100007.27
2023-04-10T09:39:36.077Z,100003.89
2023-04-10T09:42:04.620Z,100000.41
2023-04-10T09:44:37.365Z,99993.35
2023-04-10T09:47:14.205Z,99990.11
2023-04-10T09:49:50.476Z,99987.52
2023-04-10T09:52:22.563Z,99982.06
2023-04-10T09:54:50.411Z,99975.89
2023-04-10T09:57:20.118Z,99972.58
2023-04-10T09:59:52.871Z,99963.11
2023-04-10T10:02:23.184Z,99956.30
2023-04-10T10:04:52.553Z,99953.13
2023-04-10T10:07:22.757Z,99957.86
2023-04-10T10:09:52.497Z,99958.86
2023-04-10T10:12:29.739Z,99958.46
2023-04-10T10:15:02.982Z,99962.49
2023-04-10T10:17:37.926Z,99963.54
2023-04-10T10:20:10.693Z,99951.49
2023-04-10T10:22:38.722Z,99948.18
2023-04-10T10:25:08.885Z,99943.33
2023-04-10T10:27:38.755Z,99940.41
2023-04-10T10:30:25.422Z,99940.48
2023-04-10T10:32:58.338Z,99935.41
2023-04-10T10:35:29.651Z,99935.55
2023-04-10T10:38:00.505Z,99934.74
2023-04-10T10:40:37.323Z,99937.09
2023-04-10T10:43:38.103Z,99932.53
2023-04-10T10:46:12.893Z,99932.64
2023-04-10T10:48:40.888Z,99936.04
2023-04-10T10:51:08.790Z,99933.91
2023-04-10T10:53:43.871Z,99932.37
2023-04-10T10:56:20.766Z,99930.34
2023-04-10T10:58:58.794Z,99922.94
2023-04-10T11:01:27.544Z,99918.36
2023-04-10T11:03:55.595Z,99923.02
2023-04-10T11:06:51.243Z,99912.42
2023-04-10T11:09:52.077Z,99914.20
2023-04-10T11:12:23.528Z,99912.83
2023-04-10T11:15:03.200Z,99911.41
2023-04-10T11:17:50.800Z,99904.96
2023-04-10T11:20:21.900Z,99903.05
2023-04-10T11:23:11.313Z,99895.40
2023-04-10T11:25:53.103Z,99892.98
2023-04-10T11:28:33.155Z,99889.45
2023-04-10T11:31:22.104Z,99889.52
2023-04-10T11:34:10.947Z,99886.76
2023-04-10T11:36:42.069Z,99880.67
2023-04-10T11:39:17.841Z,99878.99
2023-04-10T11:41:50.847Z,99876.42
2023-04-10T11:44:35.468Z,99876.06
2023-04-10T11:47:03.507Z,99870.79
2023-04-10T11:49:32.960Z,99870.80
2023-04-10T11:52:01.139Z,99870.86
2023-04-10T11:54:29.699Z,99868.79
2023-04-10T11:57:03.309Z,99867.80
2023-04-10T11:59:33.438Z,99863.52
2023-04-10T12:02:15.401Z,99862.45
2023-04-10T12:04:44.353Z,99861.66
2023-04-10T12:07:12.501Z,99858.95
2023-04-10T12:09:40.920Z,99855.51
2023-04-10T12:12:09.184Z,99852.94
2023-04-10T12:14:38.280Z,99846.66
2023-04-10T12:17:11.752Z,99842.31
2023-04-10T12:19:40.287Z,99841.20
2023-04-10T12:22:11.985Z,99836.48
2023-04-10T12:24:45.033Z,99834.64
2023-04-10T12:27:28.693Z,99834.60
2023-04-10T12:29:58.063Z,99831.80
2023-04-10T12:32:27.635Z,99823.22
2023-04-10T12:34:58.278Z,99822.50
2023-04-10T12:37:54.394Z,99818.33
2023-04-10T12:40:22.322Z,99814.63
2023-04-10T12:42:50.205Z,99813.55
2023-04-10T12:45:18.052Z,99811.95
2023-04-10T12:47:47.924Z,99810.47
2023-04-10T12:50:18.335Z,99806.36
2023-04-10T12:53:02.004Z,99801.07
2023-04-10T12:55:31.255Z,99796.56
2023-04-10T12:58:17.453Z,99798.20
2023-04-10T13:00:46.106Z,99798.66
2023-04-10T13:03:14.309Z,99796.68
2023-04-10T13:05:43.265Z,99795.13
2023-04-10T13:08:11.095Z,99788.26
2023-04-10T13:10:39.001Z,99779.91
2023-04-10T13:13:07.287Z,99774.92
2023-04-10T13:15:35.459Z,99774.48
2023-04-10T13:18:07.031Z,99774.02
2023-04-10T13:20:36.136Z,99771.51
2023-04-10T13:23:04.309Z,99769.52
2023-04-10T13:25:33.875Z,99767.46
2023-04-10T13:28:01.925Z,99766.35
2023-04-10T13:30:29.818Z,99761.13
2023-04-10T13:32:57.727Z,99760.64
2023-04-10T13:35:25.791Z,99758.30
2023-04-10T13:37:54.286Z,99753.39
2023-04-10T13:40:22.297Z,99753.80
2023-04-10T13:42:50.214Z,99752.38
2023-04-10T13:45:18.339Z,99745.56
2023-04-10T13:47:46.222Z,99742.66
2023-04-10T13:50:14.136Z,99740.67
2023-04-10T13:52:42.153Z,99738.48
2023-04-10T13:55:10.547Z,99732.10
2023-04-10T13:57:38.993Z,99728.80
2023-04-10T14:00:10.322Z,99723.81
2023-04-10T14:02:41.098Z,99713.99
2023-04-10T14:05:09.671Z,99710.81
2023-04-10T14:07:37.556Z,99710.63
2023-04-10T14:10:07.481Z,99710.77
2023-04-10T14:12:36.264Z,99703.66
2023-04-10T14:15:06.320Z,99698.08
2023-04-10T14:17:34.795Z,99694.54
2023-04-10T14:20:02.789Z,99687.29
2023-04-10T14:22:31.759Z,99683.06
2023-04-10T14:25:11.702Z,99680.38
2023-04-10T14:27:40.734Z,99677.83
2023-04-10T14:30:10.122Z,99674.62
2023-04-10T14:32:41.829Z,99674.25
2023-04-10T14:35:10.704Z,99671.10
2023-04-10T14:37:38.896Z,99670.70
2023-04-10T14:40:07.792Z,99667.05
2023-04-10T14:42:36.172Z,99665.67
2023-04-10T14:45:05.595Z,99661.98
2023-04-10T14:47:33.696Z,99658.95
2023-04-10T14:50:01.817Z,99652.02
2023-04-10T14:52:29.612Z,99645.46
2023-04-10T14:54:57.484Z,99639.89
2023-04-10T14:57:25.476Z,99632.25
2023-04-10T14:59:53.325Z,99628.79
2023-04-10T15:02:21.534Z,99626.09
2023-04-10T15:04:49.489Z,99622.35
2023-04-10T15:07:17.457Z,99621.55
2023-04-10T15:09:46.269Z,99619.42
2023-04-10T15:12:14.419Z,99615.52
2023-04-10T15:14:42.703Z,99611.67
2023-04-10T15:17:10.657Z,99607.03
2023-04-10T15:19:38.545Z,99604.25
2023-04-10T15:22:06.377Z,99602.38
2023-04-10T15:24:46.937Z,99601.45
2023-04-10T15:27:21.354Z,99598.52
2023-04-10T15:29:49.682Z,99599.15
2023-04-10T15:32:17.721Z,99595.20
2023-04-10T15:34:45.720Z,99598.90
2023-04-10T15:37:13.571Z,99598.73
2023-04-10T15:39:41.468Z,99594.89
2023-04-10T15:42:09.433Z,99591.87
2023-04-10T15:44:37.370Z,99593.61
2023-04-10T15:47:05.269Z,99591.94
2023-04-10T15:49:38.381Z,99591.61
2023-04-10T15:52:07.148Z,99587.21
2023-04-10T15:54:35.405Z,99591.29
2023-04-10T15:57:03.802Z,99584.98
2023-04-10T15:59:33.319Z,99582.63
2023-04-10T16:02:01.800Z,99581.81
2023-04-10T16:04:30.988Z,99581.73
2023-04-10T16:06:59.376Z,99577.87
2023-04-10T16:09:27.999Z,99573.08
2023-04-10T16:11:56.324Z,99568.08
2023-04-10T16:14:24.464Z,99566.55
2023-04-10T16:16:52.639Z,99566.71
2023-04-10T16:19:21.154Z,99562.02
2023-04-10T16:21:50.220Z,99556.63
2023-04-10T16:24:18.319Z,99556.19
2023-04-10T16:26:46.394Z,99552.93
2023-04-10T16:29:16.033Z,99547.65
2023-04-10T16:31:44.191Z,99542.37
2023-04-10T16:34:12.115Z,99541.00
2023-04-10T16:36:40.251Z,99538.54
2023-04-10T16:39:08.649Z,99534.46
2023-04-10T16:41:36.803Z,99529.26
2023-04-10T16:44:04.946Z,99532.19
2023-04-10T16:46:33.228Z,99527.66
2023-04-10T16:49:01.690Z,99526.90
2023-04-10T16:51:29.945Z,99526.17
2023-04-10T16:53:57.811Z,99526.71
2023-04-10T16:56:26.186Z,99526.36
2023-04-10T16:58:54.827Z,99520.64
2023-04-10T17:01:27.285Z,99519.02
2023-04-10T17:03:55.670Z,99515.73
2023-04-10T17:06:23.811Z,99510.98
2023-04-10T17:08:51.659Z,99507.67
2023-04-10T17:11:19.885Z,99505.29
2023-04-10T17:13:47.787Z,99504.58
2023-04-10T17:16:16.228Z,99502.66
2023-04-10T17:18:46.047Z,99501.30
2023-04-10T17:21:14.024Z,99498.08
2023-04-10T17:23:42.568Z,99495.63
2023-04-10T17:26:15.103Z,99498.09
2023-04-10T17:28:46.723Z,99500.17
2023-04-10T17:31:15.037Z,99497.52
2023-04-10T17:33:44.318Z,99497.42
2023-04-10T17:36:13.144Z,99501.41
2023-04-10T17:38:42.277Z,99499.15
2023-04-10T17:41:15.496Z,99496.91
2023-04-10T17:43:43.880Z,99494.66
2023-04-10T17:46:15.484Z,99494.09
2023-04-10T17:48:44.534Z,99496.23
2023-04-10T17:51:12.887Z,99495.96
2023-04-10T17:53:41.218Z,99495.73
2023-04-10T17:56:18.798Z,99493.80
2023-04-10T17:58:47.195Z,99490.35
2023-04-10T18:01:27.536Z,99494.21
2023-04-10T18:03:56.287Z,99490.95
2023-04-10T18:06:24.834Z,99497.52
2023-04-10T18:08:53.226Z,99495.02
2023-04-10T18:11:22.577Z,99497.69
2023-04-10T18:13:50.847Z,99496.23
2023-04-10T18:16:19.117Z,99498.51
2023-04-10T18:18:47.482Z,99498.33
2023-04-10T18:21:16.083Z,99500.29
2023-04-10T18:23:44.663Z,99496.75
2023-04-10T18:26:13.285Z,99499.95
2023-04-10T18:28:43.183Z,99500.49
2023-04-10T18:31:14.662Z,99498.95
2023-04-10T18:33:43.437Z,99501.61
2023-04-10T18:36:13.926Z,99495.58
2023-04-10T18:38:43.821Z,99492.41
2023-04-10T18:41:12.024Z,99495.05
2023-04-10T18:43:40.182Z,99494.48
2023-04-10T18:46:08.402Z,99494.41
2023-04-10T18:48:42.778Z,99492.55
2023-04-10T18:51:13.854Z,99492.98
2023-04-10T18:53:42.031Z,99495.91
2023-04-10T18:56:10.229Z,99493.70
2023-04-10T18:58:38.280Z,99494.47
2023-04-10T19:01:06.885Z,99499.48
2023-04-10T19:03:35.295Z,99503.75
2023-04-10T19:06:03.781Z,99501.70
2023-04-10T19:08:31.689Z,99499.55
2023-04-10T19:11:03.208Z,99500.33
2023-04-10T19:13:31.274Z,99500.88
2023-04-10T19:16:03.445Z,99496.86
2023-04-10T19:18:32.197Z,99497.58
2023-04-10T19:21:00.378Z,99497.61
2023-04-10T19:37:05.109Z,99485.52
2023-04-10T19:39:33.368Z,99487.79
2023-04-10T19:42:03.309Z,99482.81
2023-04-10T19:44:31.719Z,99481.52
2023-04-10T19:47:00.137Z,99477.39
2023-04-10T19:49:28.624Z,99477.97
2023-04-10T19:51:57.267Z,99474.86
2023-04-10T19:54:25.310Z,99468.02
2023-04-10T19:56:53.390Z,99466.96
2023-04-10T19:59:21.645Z,99463.27
2023-04-10T20:01:49.894Z,99458.17
2023-04-10T20:04:18.007Z,99453.27
2023-04-10T20:06:46.769Z,99451.95
2023-04-10T20:09:15.680Z,99451.16
2023-04-10T20:11:43.570Z,99450.16
2023-04-10T20:14:11.455Z,99443.55
2023-04-10T20:16:41.154Z,99435.55
2023-04-10T20:19:09.256Z,99433.53
2023-04-10T20:21:37.103Z,99427.98
2023-04-10T20:24:05.278Z,99423.64
2023-04-10T20:26:33.928Z,99419.47
2023-04-10T20:29:01.907Z,99422.63
2023-04-10T20:31:30.552Z,99416.46
2023-04-10T20:33:59.522Z,99407.08
2023-04-10T20:36:27.494Z,99398.02
2023-04-10T20:38:55.631Z,99395.23
2023-04-10T20:41:25.283Z,99390.89
2023-04-10T20:43:55.761Z,99391.27
2023-04-10T20:46:24.723Z,99389.42
2023-04-10T20:48:55.685Z,99392.80
2023-04-10T20:51:23.793Z,99390.35
2023-04-10T20:53:51.723Z,99389.17
2023-04-10T20:56:21.132Z,99393.42
2023-04-10T20:58:50.702Z,99394.64
2023-04-10T21:01:18.588Z,99390.25
2023-04-10T21:03:46.786Z,99384.77
2023-04-10T21:06:15.438Z,99382.98
2023-04-10T21:08:43.425Z,99377.81
2023-04-10T21:11:11.446Z,99371.94
2023-04-10T21:13:39.308Z,99369.28
2023-04-10T21:16:07.427Z,99362.41
2023-04-10T21:18:35.409Z,99362.70
2023-04-10T21:21:03.449Z,99357.93
2023-04-10T21:23:31.275Z,99361.64
2023-04-10T21:25:59.207Z,99363.95
2023-04-10T21:28:27.668Z,99359.45
2023-04-10T21:30:55.557Z,99355.08
2023-04-10T21:33:23.496Z,99348.17
2023-04-10T21:35:51.377Z,99345.33
2023-04-10T21:38:19.396Z,99340.73
2023-04-10T21:40:54.460Z,99336.65
2023-04-10T21:43:22.444Z,99333.11
2023-04-10T21:45:50.381Z,99330.75
2023-04-10T21:48:20.528Z,99325.80
2023-04-10T21:50:49.814Z,99319.46
2023-04-10T21:53:17.705Z,99315.94
2023-04-10T21:55:45.866Z,99315.35
2023-04-10T21:58:13.734Z,99314.41
2023-04-10T22:00:42.570Z,99310.27
2023-04-10T22:03:10.719Z,99307.19
2023-04-10T22:05:38.903Z,99305.86
2023-04-10T22:08:06.761Z,99303.32
2023-04-10T22:10:35.210Z,99298.48
2023-04-10T22:13:03.169Z,99295.59
2023-04-10T22:15:31.162Z,99295.02
2023-04-10T22:17:59.255Z,99291.45
2023-04-10T22:20:27.187Z,99288.14
2023-04-10T22:22:55.057Z,99285.82
2023-04-10T22:25:22.972Z,99281.73
2023-04-10T22:27:50.912Z,99277.08
2023-04-10T22:30:18.820Z,99272.33
2023-04-10T22:32:46.763Z,99269.61
2023-04-10T22:35:15.890Z,99262.20
2023-04-10T22:37:44.382Z,99259.23
2023-04-10T22:40:12.307Z,99258.64
2023-04-10T22:42:40.730Z,99258.58
2023-04-10T22:45:09.003Z,99255.68
2023-04-10T22:47:36.852Z,99254.08
2023-04-10T22:50:05.582Z,99250.10
2023-04-10T22:52:33.565Z,99247.33
2023-04-10T22:55:01.539Z,99241.80
2023-04-10T22:57:29.456Z,99235.98
2023-04-10T22:59:59.375Z,99236.02
2023-04-10T23:02:28.486Z,99232.23
2023-04-10T23:04:57.701Z,99227.92
2023-04-10T23:07:27.809Z,99219.98
2023-04-10T23:09:55.760Z,99213.72
2023-04-10T23:12:23.719Z,99207.83
2023-04-10T23:14:51.600Z,99200.86
2023-04-10T23:17:20.275Z,99187.94
2023-04-10T23:19:48.160Z,99179.77
2023-04-10T23:22:16.025Z,99173.58
2023-04-10T23:24:43.920Z,99166.88
2023-04-10T23:27:11.903Z,99163.98
2023-04-10T23:29:39.763Z,99159.80
2023-04-10T23:32:08.222Z,99158.13
2023-04-10T23:34:36.252Z,99155.27
2023-04-10T23:37:04.178Z,99146.46
2023-04-10T23:39:32.121Z,99139.91
2023-04-10T23:42:00.108Z,99133.02
2023-04-10T23:44:28.020Z,99135.17
2023-04-10T23:46:56.266Z,99128.45
2023-04-10T23:49:24.432Z,99121.51
2023-04-10T23:51:52.392Z,99114.27
2023-04-10T23:54:20.256Z,99110.48
2023-04-10T23:56:48.198Z,99103.84
2023-04-10T23:59:17.070Z,99101.34
